createdAt,value
2023-01-20T00:01:16.907Z,29.63
2023-01-20T00:03:45.739Z,32.35
2023-01-20T00:06:16.064Z,31.02
2023-01-20T00:08:44.543Z,32.17
2023-01-20T00:11:14.035Z,30.60
2023-01-20T00:13:42.562Z,30.77
2023-01-20T00:16:12.404Z,33.22
2023-01-20T00:18:42.591Z,31.83
2023-01-20T00:21:12.669Z,32.38
2023-01-20T00:23:41.714Z,34.28
2023-01-20T00:26:12.000Z,33.60
2023-01-20T00:28:40.728Z,34.45
2023-01-20T00:31:13.949Z,31.90
2023-01-20T00:33:44.549Z,34.83
2023-01-20T00:36:13.989Z,35.30
2023-01-20T00:38:42.471Z,33.72
2023-01-20T00:41:11.667Z,34.97
2023-01-20T00:43:40.060Z,35.58
2023-01-20T00:46:09.448Z,35.70
2023-01-20T00:48:38.855Z,36.15
2023-01-20T00:51:10.288Z,38.28
2023-01-20T00:53:38.889Z,37.72
2023-01-20T00:56:08.024Z,38.08
2023-01-20T00:58:36.589Z,37.10
2023-01-20T01:01:05.241Z,38.25
2023-01-20T01:03:33.694Z,38.30
2023-01-20T01:06:12.628Z,37.70
2023-01-20T01:08:41.689Z,40.20
2023-01-20T01:11:11.305Z,38.58
2023-01-20T01:13:39.929Z,37.30
2023-01-20T01:16:12.760Z,35.58
2023-01-20T01:18:42.059Z,37.03
2023-01-20T01:21:13.631Z,36.67
2023-01-20T01:23:42.331Z,34.95
2023-01-20T01:26:11.020Z,34.80
2023-01-20T01:28:39.853Z,27.38
2023-01-20T01:31:09.364Z,28.75
2023-01-20T01:33:37.943Z,30.23
2023-01-20T01:36:08.462Z,32.20
2023-01-20T01:38:38.389Z,39.00
2023-01-20T01:41:07.118Z,38.70
2023-01-20T01:43:37.816Z,38.80
2023-01-20T01:46:07.447Z,39.80
2023-01-20T01:48:39.798Z,39.30
2023-01-20T01:51:12.534Z,37.50
2023-01-20T01:53:46.636Z,40.05
2023-01-20T01:56:17.594Z,42.00
2023-01-20T01:58:49.840Z,40.33
2023-01-20T02:01:19.659Z,40.63
2023-01-20T02:03:56.015Z,42.40
2023-01-20T02:06:28.200Z,42.17
2023-01-20T02:08:58.727Z,40.10
2023-01-20T02:11:27.153Z,40.22
2023-01-20T02:13:56.003Z,38.20
2023-01-20T02:16:32.609Z,39.67
2023-01-20T02:19:17.789Z,36.60
2023-01-20T02:22:10.757Z,36.40
2023-01-20T02:25:20.252Z,33.28
2023-01-20T02:28:25.298Z,33.13
2023-01-20T02:31:08.956Z,33.00
2023-01-20T02:33:44.585Z,33.53
2023-01-20T02:36:16.633Z,32.50
2023-01-20T02:38:49.762Z,30.60
2023-01-20T02:41:24.740Z,32.72
2023-01-20T02:44:02.807Z,31.35
2023-01-20T02:46:35.913Z,28.20
2023-01-20T02:49:13.612Z,30.33
2023-01-20T02:51:48.440Z,29.48
2023-01-20T02:54:19.668Z,29.75
2023-01-20T02:56:50.879Z,30.63
2023-01-20T02:59:24.699Z,32.28
2023-01-20T03:01:57.978Z,33.90
2023-01-20T03:04:31.048Z,30.95
2023-01-20T03:07:01.915Z,31.75
2023-01-20T03:09:34.700Z,32.22
2023-01-20T03:12:10.334Z,34.38
2023-01-20T03:14:39.170Z,34.17
2023-01-20T03:17:07.600Z,34.22
2023-01-20T03:19:37.973Z,33.38
2023-01-20T03:22:06.907Z,37.80
2023-01-20T03:24:37.393Z,34.00
2023-01-20T03:27:06.668Z,34.63
2023-01-20T03:29:35.491Z,34.88
2023-01-20T03:32:05.820Z,34.65
2023-01-20T03:34:38.933Z,34.10
2023-01-20T03:37:14.783Z,34.80
2023-01-20T03:39:43.399Z,33.22
2023-01-20T03:42:17.270Z,34.88
2023-01-20T03:45:01.782Z,35.05
2023-01-20T03:47:44.621Z,36.08
2023-01-20T03:50:26.723Z,35.78
2023-01-20T03:52:58.492Z,34.75
2023-01-20T03:55:33.075Z,35.95
2023-01-20T03:58:05.075Z,35.65
2023-01-20T04:00:38.795Z,35.28
2023-01-20T04:03:11.723Z,36.55
2023-01-20T04:05:43.343Z,36.75
2023-01-20T04:08:14.734Z,37.67
2023-01-20T04:10:47.781Z,40.40
2023-01-20T04:13:17.082Z,37.72
2023-01-20T04:15:46.967Z,39.25
2023-01-20T04:18:17.810Z,38.55
2023-01-20T04:20:51.103Z,36.70
2023-01-20T04:23:24.602Z,37.08
2023-01-20T04:25:53.178Z,35.85
2023-01-20T04:28:22.238Z,35.42
2023-01-20T04:30:50.979Z,35.70
2023-01-20T04:33:19.522Z,36.22
2023-01-20T04:35:49.288Z,36.60
2023-01-20T04:38:17.868Z,33.80
2023-01-20T04:40:46.299Z,36.40
2023-01-20T04:43:15.565Z,32.03
2023-01-20T04:45:44.146Z,31.17
2023-01-20T04:48:13.031Z,30.30
2023-01-20T04:50:43.253Z,28.15
2023-01-20T04:53:16.885Z,29.30
2023-01-20T04:55:45.509Z,31.48
2023-01-20T04:58:14.045Z,29.38
2023-01-20T05:00:43.766Z,32.55
2023-01-20T05:03:12.354Z,33.10
2023-01-20T05:05:40.942Z,33.55
2023-01-20T05:08:09.538Z,33.88
2023-01-20T05:10:39.357Z,33.75
2023-01-20T05:13:08.369Z,35.08
2023-01-20T05:15:37.343Z,34.50
2023-01-20T05:18:05.990Z,35.45
2023-01-20T05:20:35.198Z,35.20
2023-01-20T05:23:06.583Z,36.35
2023-01-20T05:25:34.951Z,34.67
2023-01-20T05:28:04.909Z,36.72
2023-01-20T05:30:39.604Z,34.15
2023-01-20T05:33:08.063Z,35.35
2023-01-20T05:35:38.600Z,34.75
2023-01-20T05:38:07.217Z,34.92
2023-01-20T05:40:35.629Z,32.53
2023-01-20T05:43:05.693Z,34.13
2023-01-20T05:45:34.339Z,29.40
2023-01-20T05:48:03.152Z,30.30
2023-01-20T05:50:31.520Z,29.25
2023-01-20T05:53:00.310Z,28.42
2023-01-20T05:55:28.836Z,27.08
2023-01-20T05:57:57.160Z,27.98
2023-01-20T06:00:27.160Z,27.42
2023-01-20T06:02:55.655Z,26.67
2023-01-20T06:05:24.207Z,23.75
2023-01-20T06:07:52.772Z,24.17
2023-01-20T06:10:21.393Z,23.30
2023-01-20T06:12:53.287Z,24.45
2023-01-20T06:15:23.582Z,20.73
2023-01-20T06:17:56.137Z,21.55
2023-01-20T06:20:24.711Z,20.55
2023-01-20T06:22:55.875Z,20.35
2023-01-20T06:25:24.696Z,20.63
2023-01-20T06:27:53.041Z,20.55
2023-01-20T06:30:21.627Z,20.00
2023-01-20T06:32:50.003Z,19.08
2023-01-20T06:35:19.779Z,18.63
2023-01-20T06:37:48.327Z,18.35
2023-01-20T06:40:17.524Z,18.98
2023-01-20T06:42:45.939Z,18.15
2023-01-20T06:45:16.946Z,20.98
2023-01-20T06:47:49.533Z,20.60
2023-01-20T06:50:19.753Z,17.20
2023-01-20T06:52:48.228Z,20.02
2023-01-20T06:55:17.177Z,20.55
2023-01-20T06:57:45.733Z,21.55
2023-01-20T07:00:15.546Z,20.70
2023-01-20T07:02:44.258Z,19.33
2023-01-20T07:05:13.003Z,19.17
2023-01-20T07:07:44.869Z,21.70
2023-01-20T07:10:14.469Z,21.55
2023-01-20T07:12:42.809Z,22.83
2023-01-20T07:15:12.251Z,23.58
2023-01-20T07:17:40.735Z,23.45
2023-01-20T07:20:10.798Z,25.17
2023-01-20T07:22:39.404Z,24.52
2023-01-20T07:25:10.237Z,23.33
2023-01-20T07:27:38.682Z,23.30
2023-01-20T07:30:08.400Z,23.65
2023-01-20T07:32:36.795Z,22.73
2023-01-20T07:35:06.019Z,23.15
2023-01-20T07:37:35.267Z,22.70
2023-01-20T07:40:04.044Z,24.08
2023-01-20T07:42:33.892Z,19.05
2023-01-20T07:45:02.360Z,19.55
2023-01-20T07:47:30.940Z,19.10
2023-01-20T07:49:59.342Z,19.38
2023-01-20T07:52:27.746Z,20.27
2023-01-20T07:54:56.146Z,20.17
2023-01-20T07:57:24.577Z,18.33
2023-01-20T07:59:54.559Z,18.67
2023-01-20T08:02:23.269Z,15.85
2023-01-20T08:04:51.848Z,16.30
2023-01-20T08:07:20.308Z,16.30
2023-01-20T08:09:50.034Z,17.48
2023-01-20T08:12:18.678Z,17.45
2023-01-20T08:14:47.130Z,17.05
2023-01-20T08:17:17.294Z,16.90
2023-01-20T08:19:45.969Z,16.35
2023-01-20T08:22:14.473Z,15.98
2023-01-20T08:24:42.917Z,16.58
2023-01-20T08:27:11.444Z,16.15
2023-01-20T08:29:39.817Z,17.08
2023-01-20T08:32:08.434Z,16.88
2023-01-20T08:34:38.961Z,15.85
2023-01-20T08:37:07.705Z,14.35
2023-01-20T08:39:36.073Z,17.00
2023-01-20T08:42:04.673Z,16.83
2023-01-20T08:44:33.257Z,13.82
2023-01-20T08:47:03.090Z,15.15
2023-01-20T08:49:31.617Z,13.98
2023-01-20T08:52:01.637Z,14.27
2023-01-20T08:54:34.342Z,13.80
2023-01-20T08:57:03.077Z,14.48
2023-01-20T08:59:31.467Z,14.35
2023-01-20T09:01:59.896Z,14.27
2023-01-20T09:04:28.365Z,14.27
2023-01-20T09:06:57.259Z,15.63
2023-01-20T09:09:27.814Z,13.00
2023-01-20T09:11:56.218Z,13.60
2023-01-20T09:14:27.227Z,12.05
2023-01-20T09:16:55.772Z,13.77
2023-01-20T09:19:24.157Z,12.52
2023-01-20T09:21:52.723Z,13.88
2023-01-20T09:24:25.083Z,14.02
2023-01-20T09:26:56.740Z,15.23
2023-01-20T09:29:25.662Z,16.35
2023-01-20T09:31:58.142Z,15.95
2023-01-20T09:34:29.789Z,15.65
2023-01-20T09:37:23.205Z,17.08
2023-01-20T09:40:09.693Z,17.42
2023-01-20T09:43:12.659Z,17.40
2023-01-20T09:45:50.036Z,17.75
2023-01-20T09:48:46.046Z,19.15
2023-01-20T09:51:37.728Z,15.52
2023-01-20T09:54:13.268Z,17.50
2023-01-20T09:56:47.782Z,18.58
2023-01-20T09:59:25.806Z,16.20
2023-01-20T10:01:58.809Z,16.67
2023-01-20T10:04:33.825Z,16.08
2023-01-20T10:07:11.604Z,15.07
2023-01-20T10:09:46.069Z,15.85
2023-01-20T10:12:19.723Z,17.40
2023-01-20T10:14:56.356Z,16.60
2023-01-20T10:17:30.005Z,17.52
2023-01-20T10:20:03.994Z,16.95
2023-01-20T10:22:38.090Z,16.60
2023-01-20T10:25:13.850Z,18.20
2023-01-20T10:27:51.359Z,14.82
2023-01-20T10:30:26.734Z,14.35
2023-01-20T10:33:01.824Z,16.13
2023-01-20T10:35:35.928Z,13.65
2023-01-20T10:38:08.791Z,14.13
2023-01-20T10:40:43.153Z,13.95
2023-01-20T10:43:14.045Z,12.32
2023-01-20T10:45:58.577Z,12.77
2023-01-20T10:48:42.195Z,13.45
2023-01-20T10:51:18.247Z,13.02
2023-01-20T10:53:56.686Z,14.02
2023-01-20T10:56:36.676Z,14.30
2023-01-20T10:59:12.705Z,14.35
2023-01-20T11:01:46.151Z,14.07
2023-01-20T11:04:20.563Z,14.13
2023-01-20T11:06:53.182Z,15.20
2023-01-20T11:09:28.163Z,17.63
2023-01-20T11:11:58.720Z,17.45
2023-01-20T11:14:27.163Z,16.33
2023-01-20T11:17:04.359Z,16.15
2023-01-20T11:19:54.356Z,16.27
2023-01-20T11:22:33.675Z,16.30
2023-01-20T11:25:06.147Z,15.60
2023-01-20T11:27:46.428Z,15.57
2023-01-20T11:30:27.363Z,13.98
2023-01-20T11:33:20.339Z,13.02
2023-01-20T11:36:07.822Z,15.27
2023-01-20T11:38:45.129Z,13.57
2023-01-20T11:41:27.025Z,11.20
2023-01-20T11:43:58.517Z,11.45
2023-01-20T11:46:33.665Z,13.15
2023-01-20T11:49:19.803Z,12.68
2023-01-20T11:51:51.516Z,14.25
2023-01-20T11:54:23.301Z,15.38
2023-01-20T11:56:57.088Z,15.48
2023-01-20T11:59:30.235Z,16.45
2023-01-20T12:02:02.322Z,18.48
2023-01-20T12:05:07.937Z,17.35
2023-01-20T12:07:46.529Z,19.45
2023-01-20T12:10:23.288Z,20.02
2023-01-20T12:12:56.228Z,19.95
2023-01-20T12:15:27.327Z,18.00
2023-01-20T12:18:04.865Z,19.35
2023-01-20T12:20:54.852Z,18.27
2023-01-20T12:23:45.748Z,17.02
2023-01-20T12:26:19.641Z,18.92
2023-01-20T12:28:55.949Z,18.95
2023-01-20T12:31:27.611Z,18.55
2023-01-20T12:34:00.868Z,16.63
2023-01-20T12:36:51.551Z,16.63
2023-01-20T12:39:55.652Z,17.42
2023-01-20T12:42:42.879Z,16.38
2023-01-20T12:45:24.561Z,15.55
2023-01-20T12:48:14.015Z,18.10
2023-01-20T12:50:57.315Z,15.73
2023-01-20T12:53:57.189Z,15.55
2023-01-20T12:56:40.185Z,16.45
2023-01-20T12:59:22.900Z,14.90
2023-01-20T13:02:09.217Z,15.43
2023-01-20T13:05:07.023Z,13.77
2023-01-20T13:07:47.232Z,14.38
2023-01-20T13:10:50.997Z,13.82
2023-01-20T13:13:48.061Z,13.75
2023-01-20T13:16:34.298Z,13.52
2023-01-20T13:21:37.995Z,11.82
2023-01-20T13:24:07.321Z,12.15
2023-01-20T13:26:37.706Z,10.60
2023-01-20T13:29:21.314Z,10.88
2023-01-20T13:31:52.757Z,9.52
2023-01-20T13:34:35.850Z,9.95
2023-01-20T13:37:27.367Z,10.40
2023-01-20T13:39:58.033Z,10.23
2023-01-20T13:42:32.521Z,10.48
2023-01-20T13:45:27.609Z,10.68
2023-01-20T13:47:59.449Z,11.00
2023-01-20T13:50:32.827Z,10.10
2023-01-20T13:53:15.313Z,10.57
2023-01-20T13:55:54.813Z,10.45
2023-01-20T13:58:25.544Z,10.50
2023-01-20T14:00:56.937Z,9.73
2023-01-20T14:03:28.807Z,11.32
2023-01-20T14:05:59.933Z,9.88
2023-01-20T14:08:30.580Z,9.93
2023-01-20T14:11:11.476Z,8.43
2023-01-20T14:13:40.556Z,9.65
2023-01-20T14:16:20.582Z,7.60
2023-01-20T14:18:49.730Z,6.65
2023-01-20T14:21:26.079Z,7.13
2023-01-20T14:23:54.719Z,7.78
2023-01-20T14:26:25.782Z,8.48
2023-01-20T14:28:56.207Z,8.57
2023-01-20T14:31:35.254Z,9.15
2023-01-20T14:34:22.810Z,7.75
2023-01-20T14:36:52.253Z,7.68
2023-01-20T14:39:22.865Z,9.02
2023-01-20T14:41:52.937Z,8.20
2023-01-20T14:44:23.198Z,8.05
2023-01-20T14:46:56.485Z,7.80
2023-01-20T14:49:32.609Z,9.07
2023-01-20T14:52:02.204Z,8.80
2023-01-20T14:54:36.303Z,8.75
2023-01-20T14:57:18.631Z,7.40
2023-01-20T14:59:47.421Z,7.65
2023-01-20T15:02:22.992Z,8.07
2023-01-20T15:04:51.618Z,8.45
2023-01-20T15:07:28.244Z,8.23
2023-01-20T15:10:02.951Z,8.68
2023-01-20T15:12:34.019Z,8.45
2023-01-20T15:15:13.911Z,8.07
2023-01-20T15:18:06.819Z,9.07
2023-01-20T15:20:37.033Z,8.93
2023-01-20T15:23:15.735Z,9.25
2023-01-20T15:25:44.346Z,8.85
2023-01-20T15:28:24.915Z,8.13
2023-01-20T15:30:54.944Z,9.50
2023-01-20T15:33:25.762Z,8.77
2023-01-20T15:35:56.173Z,11.07
2023-01-20T15:38:25.927Z,10.07
2023-01-20T15:40:54.389Z,8.10
2023-01-20T15:43:24.743Z,8.90
2023-01-20T15:45:53.200Z,8.07
2023-01-20T15:48:24.604Z,8.10
2023-01-20T15:50:53.009Z,8.35
2023-01-20T15:53:21.465Z,7.78
2023-01-20T15:55:51.877Z,8.65
2023-01-20T15:58:26.754Z,9.20
2023-01-20T16:00:56.446Z,8.07
2023-01-20T16:03:27.464Z,8.63
2023-01-20T16:05:56.974Z,8.25
2023-01-20T16:08:30.384Z,8.02
2023-01-20T16:10:59.048Z,8.32
2023-01-20T16:13:27.659Z,9.07
2023-01-20T16:15:56.969Z,9.65
2023-01-20T16:18:26.852Z,9.93
2023-01-20T16:20:55.380Z,8.88
2023-01-20T16:23:24.063Z,9.85
2023-01-20T16:25:52.557Z,10.88
2023-01-20T16:28:24.077Z,10.70
2023-01-20T16:30:54.156Z,11.05
2023-01-20T16:33:24.543Z,9.43
2023-01-20T16:35:56.011Z,8.82
2023-01-20T16:38:26.069Z,8.48
2023-01-20T16:40:58.379Z,7.88
2023-01-20T16:43:26.990Z,9.27
2023-01-20T16:45:55.956Z,9.38
2023-01-20T16:48:26.600Z,8.77
2023-01-20T16:50:56.727Z,9.45
2023-01-20T16:53:25.347Z,9.40
2023-01-20T16:55:53.733Z,8.30
2023-01-20T16:58:22.636Z,10.52
2023-01-20T17:00:53.023Z,9.93
2023-01-20T17:03:21.636Z,10.82
2023-01-20T17:05:50.086Z,10.68
2023-01-20T17:08:19.909Z,10.10
2023-01-20T17:10:48.783Z,9.70
2023-01-20T17:13:17.199Z,10.00
2023-01-20T17:15:46.690Z,9.40
2023-01-20T17:18:15.291Z,9.85
2023-01-20T17:20:43.806Z,9.38
2023-01-20T17:23:12.959Z,9.98
2023-01-20T17:25:45.807Z,10.68
2023-01-20T17:28:14.308Z,8.98
2023-01-20T17:30:42.771Z,9.18
2023-01-20T17:33:11.400Z,11.07
2023-01-20T17:35:39.969Z,10.20
2023-01-20T17:38:08.513Z,9.98
2023-01-20T17:40:37.197Z,10.98
2023-01-20T17:43:07.030Z,10.73
2023-01-20T17:45:35.615Z,11.25
2023-01-20T17:48:04.726Z,10.70
2023-01-20T17:50:33.683Z,11.27
2023-01-20T17:53:02.130Z,10.00
2023-01-20T17:55:30.565Z,13.30
2023-01-20T17:57:59.345Z,13.07
2023-01-20T18:00:31.324Z,12.02
2023-01-20T18:03:00.037Z,13.23
2023-01-20T18:05:28.675Z,13.70
2023-01-20T18:07:57.144Z,14.52
2023-01-20T18:10:25.591Z,13.18
2023-01-20T18:12:53.982Z,14.65
2023-01-20T18:15:22.549Z,15.60
2023-01-20T18:17:52.384Z,14.63
2023-01-20T18:20:21.335Z,15.57
2023-01-20T18:22:50.574Z,14.40
2023-01-20T18:25:19.241Z,15.20
2023-01-20T18:27:47.779Z,15.35
2023-01-20T18:30:17.215Z,16.40
2023-01-20T18:32:46.260Z,16.10
2023-01-20T18:35:16.052Z,16.38
2023-01-20T18:37:44.455Z,16.15
2023-01-20T18:40:14.116Z,16.77
2023-01-20T18:42:44.897Z,18.75
2023-01-20T18:45:13.343Z,18.85
2023-01-20T18:47:41.851Z,18.15
2023-01-20T18:50:11.379Z,17.98
2023-01-20T18:52:41.277Z,18.95
2023-01-20T18:55:10.406Z,18.20
2023-01-20T18:57:38.814Z,17.73
2023-01-20T19:00:08.827Z,18.20
2023-01-20T19:02:37.372Z,18.95
2023-01-20T19:05:06.703Z,17.90
2023-01-20T19:07:35.168Z,17.40
2023-01-20T19:10:05.579Z,18.02
2023-01-20T19:12:34.175Z,17.20
2023-01-20T19:15:02.663Z,20.15
2023-01-20T19:17:33.040Z,26.17
2023-01-20T19:20:01.535Z,22.52
2023-01-20T19:22:30.908Z,21.25
2023-01-20T19:25:00.191Z,19.33
2023-01-20T19:27:32.154Z,19.60
2023-01-20T19:30:01.091Z,20.23
2023-01-20T19:32:29.828Z,18.88
2023-01-20T19:34:58.286Z,19.40
2023-01-20T19:37:27.786Z,19.98
2023-01-20T19:39:56.706Z,21.70
2023-01-20T19:42:25.929Z,21.73
2023-01-20T19:44:56.067Z,21.33
2023-01-20T19:47:24.810Z,21.65
2023-01-20T19:49:53.328Z,20.20
2023-01-20T19:52:22.019Z,21.23
2023-01-20T19:54:51.952Z,23.30
2023-01-20T19:57:20.744Z,22.13
2023-01-20T19:59:49.306Z,21.63
2023-01-20T20:02:19.116Z,21.80
2023-01-20T20:04:47.560Z,21.33
2023-01-20T20:07:16.018Z,22.52
2023-01-20T20:09:44.696Z,19.98
2023-01-20T20:12:13.519Z,21.77
2023-01-20T20:14:42.803Z,22.00
2023-01-20T20:17:11.316Z,21.92
2023-01-20T20:19:41.233Z,20.80
2023-01-20T20:22:09.811Z,23.23
2023-01-20T20:24:38.210Z,19.48
2023-01-20T20:27:06.643Z,22.27
2023-01-20T20:29:35.111Z,24.17
2023-01-20T20:32:03.555Z,24.85
2023-01-20T20:34:33.449Z,21.98
2023-01-20T20:37:03.857Z,23.35
2023-01-20T20:39:32.251Z,23.13
2023-01-20T20:42:00.713Z,22.23
2023-01-20T20:44:29.090Z,21.85
2023-01-20T20:46:57.911Z,21.08
2023-01-20T20:49:26.433Z,22.83
2023-01-20T20:51:54.796Z,21.60
2023-01-20T20:54:24.739Z,22.55
2023-01-20T20:56:53.240Z,20.98
2023-01-20T20:59:24.608Z,23.77
2023-01-20T21:01:54.349Z,23.33
2023-01-20T21:04:23.118Z,23.33
2023-01-20T21:06:51.591Z,20.98
2023-01-20T21:09:20.180Z,22.35
2023-01-20T21:11:50.075Z,22.15
2023-01-20T21:14:21.242Z,21.98
2023-01-20T21:16:50.275Z,23.45
2023-01-20T21:19:18.740Z,23.60
2023-01-20T21:21:47.393Z,21.70
2023-01-20T21:24:15.806Z,23.80
2023-01-20T21:26:44.779Z,22.63
2023-01-20T21:29:15.001Z,23.90
2023-01-20T21:31:43.466Z,22.90
2023-01-20T21:34:15.453Z,25.30
2023-01-20T21:36:43.977Z,23.17
2023-01-20T21:39:13.117Z,22.63
2023-01-20T21:41:42.210Z,22.33
2023-01-20T21:44:29.728Z,24.85
2023-01-20T21:47:01.812Z,21.70
2023-01-20T21:49:48.187Z,21.75
2023-01-20T21:52:36.404Z,24.92
2023-01-20T21:55:07.428Z,24.30
2023-01-20T21:57:36.287Z,24.63
2023-01-20T22:00:06.881Z,24.98
2023-01-20T22:02:36.887Z,23.40
2023-01-20T22:05:05.913Z,24.45
2023-01-20T22:07:34.465Z,24.35
2023-01-20T22:10:03.031Z,24.10
2023-01-20T22:12:34.532Z,23.05
2023-01-20T22:15:04.061Z,23.45
2023-01-20T22:17:32.479Z,23.73
2023-01-20T22:20:02.475Z,22.83
2023-01-20T22:22:30.893Z,24.25
2023-01-20T22:24:59.621Z,24.17
2023-01-20T22:27:28.375Z,25.45
2023-01-20T22:29:56.967Z,24.15
2023-01-20T22:32:26.069Z,24.90
2023-01-20T22:34:54.507Z,23.60
2023-01-20T22:37:24.448Z,24.95
2023-01-20T22:39:53.113Z,24.88
2023-01-20T22:42:21.629Z,23.33
2023-01-20T22:44:50.089Z,25.73
2023-01-20T22:47:18.493Z,24.75
2023-01-20T22:49:47.009Z,24.50
2023-01-20T22:52:15.617Z,24.10
2023-01-20T22:54:45.450Z,24.23
2023-01-20T22:57:13.850Z,24.70
2023-01-20T22:59:42.357Z,25.02
2023-01-20T23:02:10.896Z,25.73
2023-01-20T23:04:39.511Z,24.58
2023-01-20T23:07:07.930Z,24.77
2023-01-20T23:09:36.391Z,23.92
2023-01-20T23:12:06.882Z,24.05
2023-01-20T23:14:52.139Z,24.23
2023-01-20T23:17:20.733Z,24.92
2023-01-20T23:19:49.121Z,24.10
2023-01-20T23:22:18.282Z,24.20
2023-01-20T23:24:47.104Z,24.55
2023-01-20T23:27:19.349Z,25.40
2023-01-20T23:29:49.102Z,25.10
2023-01-20T23:32:17.930Z,25.55
2023-01-20T23:34:46.486Z,26.52
2023-01-20T23:37:14.919Z,26.02
2023-01-20T23:39:43.434Z,24.33
2023-01-20T23:42:11.910Z,25.15
2023-01-20T23:44:41.717Z,24.48
2023-01-20T23:47:10.531Z,25.83
2023-01-20T23:49:38.911Z,25.27
2023-01-20T23:52:07.626Z,25.90
2023-01-20T23:54:36.142Z,28.98
2023-01-20T23:57:04.694Z,27.08
2023-01-20T23:59:33.110Z,26.23
